sensor_id;sensor_type;location;lat;lon;timestamp;pressure;altitude;pressure_sealevel;temperature;humidity
79077;BME280;68477;42.698;23.342;2023-09-19T00:00:45;95791.94;;;16.50;67.41
79077;BME280;68477;42.698;23.342;2023-09-19T00:03:12;95787.91;;;16.26;68.49
79077;BME280;68477;42.698;23.342;2023-09-19T00:05:38;95792.94;;;16.49;67.94
79077;BME280;68477;42.698;23.342;2023-09-19T00:08:04;95795.66;;;16.27;68.61
79077;BME280;68477;42.698;23.342;2023-09-19T00:10:33;95792.53;;;16.17;69.65
79077;BME280;68477;42.698;23.342;2023-09-19T00:13:02;95785.97;;;16.13;69.60
79077;BME280;68477;42.698;23.342;2023-09-19T00:15:37;95792.47;;;16.39;68.68
79077;BME280;68477;42.698;23.342;2023-09-19T00:18:03;95786.59;;;16.15;70.26
79077;BME280;68477;42.698;23.342;2023-09-19T00:20:31;95781.69;;;16.12;70.00
79077;BME280;68477;42.698;23.342;2023-09-19T00:22:57;95778.22;;;16.12;69.97
79077;BME280;68477;42.698;23.342;2023-09-19T00:25:31;95781.88;;;16.11;70.08
79077;BME280;68477;42.698;23.342;2023-09-19T00:27:57;95774.03;;;17.00;66.95
79077;BME280;68477;42.698;23.342;2023-09-19T00:30:23;95770.25;;;16.81;67.66
79077;BME280;68477;42.698;23.342;2023-09-19T00:32:50;95775.25;;;16.63;67.85
79077;BME280;68477;42.698;23.342;2023-09-19T00:35:23;95768.78;;;16.72;67.59
79077;BME280;68477;42.698;23.342;2023-09-19T00:37:52;95765.38;;;16.50;68.35
79077;BME280;68477;42.698;23.342;2023-09-19T00:40:19;95763.75;;;16.49;68.97
79077;BME280;68477;42.698;23.342;2023-09-19T00:42:46;95760.13;;;16.63;67.99
79077;BME280;68477;42.698;23.342;2023-09-19T00:45:14;95759.50;;;16.54;68.61
79077;BME280;68477;42.698;23.342;2023-09-19T00:47:41;95757.25;;;16.23;69.35
79077;BME280;68477;42.698;23.342;2023-09-19T00:50:08;95760.66;;;16.11;70.14
79077;BME280;68477;42.698;23.342;2023-09-19T00:52:35;95767.06;;;15.95;71.08
79077;BME280;68477;42.698;23.342;2023-09-19T00:55:05;95773.63;;;15.99;71.16
79077;BME280;68477;42.698;23.342;2023-09-19T00:57:31;95769.31;;;15.70;72.20
79077;BME280;68477;42.698;23.342;2023-09-19T00:59:58;95766.44;;;15.65;72.69
79077;BME280;68477;42.698;23.342;2023-09-19T01:02:25;95765.31;;;15.81;72.15
79077;BME280;68477;42.698;23.342;2023-09-19T01:04:54;95766.22;;;15.66;73.04
79077;BME280;68477;42.698;23.342;2023-09-19T01:07:20;95767.81;;;15.61;72.84
79077;BME280;68477;42.698;23.342;2023-09-19T01:09:46;95764.59;;;15.65;73.16
79077;BME280;68477;42.698;23.342;2023-09-19T01:12:15;95764.78;;;15.64;72.86
79077;BME280;68477;42.698;23.342;2023-09-19T01:14:54;95771.88;;;15.85;72.49
79077;BME280;68477;42.698;23.342;2023-09-19T01:17:30;95765.94;;;15.83;72.30
79077;BME280;68477;42.698;23.342;2023-09-19T01:20:23;95773.09;;;15.82;72.81
79077;BME280;68477;42.698;23.342;2023-09-19T01:28:54;95784.00;;;15.51;73.92
79077;BME280;68477;42.698;23.342;2023-09-19T01:31:29;95778.94;;;15.35;74.85
79077;BME280;68477;42.698;23.342;2023-09-19T01:34:01;95771.38;;;15.10;76.11
79077;BME280;68477;42.698;23.342;2023-09-19T01:36:34;95762.97;;;15.50;74.42
79077;BME280;68477;42.698;23.342;2023-09-19T01:39:11;95762.63;;;16.02;72.01
79077;BME280;68477;42.698;23.342;2023-09-19T01:44:06;95762.34;;;15.48;74.44
79077;BME280;68477;42.698;23.342;2023-09-19T01:46:35;95760.28;;;15.43;74.76
79077;BME280;68477;42.698;23.342;2023-09-19T01:49:30;95762.53;;;15.46;74.26
79077;BME280;68477;42.698;23.342;2023-09-19T01:52:14;95765.59;;;15.43;74.39
79077;BME280;68477;42.698;23.342;2023-09-19T01:54:52;95763.94;;;15.42;75.11
79077;BME280;68477;42.698;23.342;2023-09-19T01:57:49;95765.13;;;15.39;75.08
79077;BME280;68477;42.698;23.342;2023-09-19T02:00:18;95758.75;;;15.34;75.19
79077;BME280;68477;42.698;23.342;2023-09-19T02:02:47;95767.78;;;15.39;74.96
79077;BME280;68477;42.698;23.342;2023-09-19T02:05:13;95777.63;;;15.46;74.75
79077;BME280;68477;42.698;23.342;2023-09-19T02:07:39;95773.72;;;15.41;75.70
79077;BME280;68477;42.698;23.342;2023-09-19T02:10:06;95773.66;;;15.35;75.21
79077;BME280;68477;42.698;23.342;2023-09-19T02:12:32;95761.78;;;15.31;75.94
79077;BME280;68477;42.698;23.342;2023-09-19T02:14:58;95763.78;;;15.50;73.98
79077;BME280;68477;42.698;23.342;2023-09-19T02:17:25;95760.59;;;15.33;75.97
79077;BME280;68477;42.698;23.342;2023-09-19T02:19:56;95768.25;;;15.86;73.19
79077;BME280;68477;42.698;23.342;2023-09-19T02:22:22;95763.47;;;15.17;76.43
79077;BME280;68477;42.698;23.342;2023-09-19T02:24:50;95769.25;;;14.70;77.42
79077;BME280;68477;42.698;23.342;2023-09-19T02:27:16;95762.97;;;15.07;76.81
79077;BME280;68477;42.698;23.342;2023-09-19T02:29:43;95760.31;;;15.07;76.66
79077;BME280;68477;42.698;23.342;2023-09-19T02:32:08;95757.09;;;15.11;76.54
79077;BME280;68477;42.698;23.342;2023-09-19T02:34:36;95753.00;;;15.09;76.25
79077;BME280;68477;42.698;23.342;2023-09-19T02:37:07;95758.19;;;14.81;77.22
79077;BME280;68477;42.698;23.342;2023-09-19T02:39:34;95752.25;;;15.15;76.23
79077;BME280;68477;42.698;23.342;2023-09-19T02:42:00;95741.84;;;15.13;76.25
79077;BME280;68477;42.698;23.342;2023-09-19T02:44:25;95738.16;;;15.14;76.02
79077;BME280;68477;42.698;23.342;2023-09-19T02:46:51;95740.72;;;15.23;76.02
79077;BME280;68477;42.698;23.342;2023-09-19T02:49:16;95730.00;;;15.31;75.15
79077;BME280;68477;42.698;23.342;2023-09-19T02:51:44;95735.00;;;15.04;76.53
79077;BME280;68477;42.698;23.342;2023-09-19T02:54:11;95733.66;;;14.94;77.33
79077;BME280;68477;42.698;23.342;2023-09-19T02:56:37;95734.50;;;15.15;76.21
79077;BME280;68477;42.698;23.342;2023-09-19T02:59:03;95731.19;;;15.07;75.99
79077;BME280;68477;42.698;23.342;2023-09-19T03:01:30;95733.19;;;15.26;75.20
79077;BME280;68477;42.698;23.342;2023-09-19T03:03:55;95737.31;;;15.07;76.32
79077;BME280;68477;42.698;23.342;2023-09-19T03:06:21;95723.31;;;14.77;77.17
79077;BME280;68477;42.698;23.342;2023-09-19T03:08:47;95715.31;;;14.56;78.96
79077;BME280;68477;42.698;23.342;2023-09-19T03:11:14;95722.94;;;14.80;77.47
79077;BME280;68477;42.698;23.342;2023-09-19T03:13:41;95723.84;;;14.51;78.69
79077;BME280;68477;42.698;23.342;2023-09-19T03:16:08;95723.91;;;14.94;77.29
79077;BME280;68477;42.698;23.342;2023-09-19T03:18:34;95721.34;;;14.65;78.26
79077;BME280;68477;42.698;23.342;2023-09-19T03:21:00;95717.66;;;15.02;76.28
79077;BME280;68477;42.698;23.342;2023-09-19T03:23:26;95713.91;;;15.11;76.02
79077;BME280;68477;42.698;23.342;2023-09-19T03:25:53;95713.78;;;14.83;77.17
79077;BME280;68477;42.698;23.342;2023-09-19T03:28:18;95712.66;;;14.92;76.37
79077;BME280;68477;42.698;23.342;2023-09-19T03:30:45;95712.97;;;14.82;77.47
79077;BME280;68477;42.698;23.342;2023-09-19T03:33:11;95720.50;;;15.00;76.62
79077;BME280;68477;42.698;23.342;2023-09-19T03:35:38;95715.25;;;14.85;76.89
79077;BME280;68477;42.698;23.342;2023-09-19T03:38:05;95723.25;;;15.07;75.87
79077;BME280;68477;42.698;23.342;2023-09-19T03:40:30;95726.06;;;14.69;77.56
79077;BME280;68477;42.698;23.342;2023-09-19T03:42:56;95726.09;;;14.91;76.73
79077;BME280;68477;42.698;23.342;2023-09-19T03:45:21;95730.50;;;14.83;77.93
79077;BME280;68477;42.698;23.342;2023-09-19T03:47:47;95739.94;;;14.71;78.48
79077;BME280;68477;42.698;23.342;2023-09-19T03:50:13;95734.81;;;14.70;77.30
79077;BME280;68477;42.698;23.342;2023-09-19T03:52:44;95729.72;;;14.24;79.66
79077;BME280;68477;42.698;23.342;2023-09-19T03:55:10;95731.53;;;14.68;77.97
79077;BME280;68477;42.698;23.342;2023-09-19T03:57:48;95732.94;;;14.19;80.33
79077;BME280;68477;42.698;23.342;2023-09-19T04:00:14;95743.59;;;14.26;80.46
79077;BME280;68477;42.698;23.342;2023-09-19T04:02:43;95741.44;;;14.30;80.66
79077;BME280;68477;42.698;23.342;2023-09-19T04:05:09;95739.84;;;14.35;79.12
79077;BME280;68477;42.698;23.342;2023-09-19T04:07:35;95740.13;;;13.96;81.81
79077;BME280;68477;42.698;23.342;2023-09-19T04:10:01;95737.94;;;14.44;79.17
79077;BME280;68477;42.698;23.342;2023-09-19T04:12:28;95752.00;;;14.30;80.17
79077;BME280;68477;42.698;23.342;2023-09-19T04:14:53;95748.16;;;14.32;79.87
79077;BME280;68477;42.698;23.342;2023-09-19T04:17:18;95751.47;;;14.19;80.95
79077;BME280;68477;42.698;23.342;2023-09-19T04:19:44;95754.47;;;14.75;79.23
79077;BME280;68477;42.698;23.342;2023-09-19T04:22:11;95756.28;;;14.75;78.30
79077;BME280;68477;42.698;23.342;2023-09-19T04:24:38;95752.28;;;14.05;81.46
79077;BME280;68477;42.698;23.342;2023-09-19T04:27:04;95743.31;;;14.80;78.52
79077;BME280;68477;42.698;23.342;2023-09-19T04:29:30;95738.88;;;14.66;79.19
79077;BME280;68477;42.698;23.342;2023-09-19T04:31:56;95741.22;;;14.61;78.54
79077;BME280;68477;42.698;23.342;2023-09-19T04:34:22;95746.84;;;14.51;80.47
79077;BME280;68477;42.698;23.342;2023-09-19T04:36:49;95746.53;;;14.61;78.86
79077;BME280;68477;42.698;23.342;2023-09-19T04:39:15;95752.81;;;14.74;78.00
79077;BME280;68477;42.698;23.342;2023-09-19T04:41:42;95743.41;;;14.72;78.37
79077;BME280;68477;42.698;23.342;2023-09-19T04:44:08;95747.13;;;15.13;76.56
79077;BME280;68477;42.698;23.342;2023-09-19T04:46:34;95730.59;;;15.11;76.14
79077;BME280;68477;42.698;23.342;2023-09-19T04:49:00;95738.03;;;15.01;77.52
79077;BME280;68477;42.698;23.342;2023-09-19T04:51:25;95738.94;;;15.30;75.53
79077;BME280;68477;42.698;23.342;2023-09-19T04:53:55;95738.06;;;15.23;75.66
79077;BME280;68477;42.698;23.342;2023-09-19T04:56:21;95728.16;;;15.31;76.16
79077;BME280;68477;42.698;23.342;2023-09-19T04:58:47;95731.44;;;15.55;74.78
79077;BME280;68477;42.698;23.342;2023-09-19T05:01:12;95733.38;;;15.46;74.62
79077;BME280;68477;42.698;23.342;2023-09-19T05:03:40;95729.28;;;15.43;74.76
79077;BME280;68477;42.698;23.342;2023-09-19T05:06:06;95727.97;;;15.76;73.92
79077;BME280;68477;42.698;23.342;2023-09-19T05:08:31;95728.69;;;15.63;73.71
79077;BME280;68477;42.698;23.342;2023-09-19T05:10:56;95734.50;;;15.80;72.98
79077;BME280;68477;42.698;23.342;2023-09-19T05:13:22;95732.63;;;16.01;72.79
79077;BME280;68477;42.698;23.342;2023-09-19T05:15:52;95731.66;;;16.50;71.71
79077;BME280;68477;42.698;23.342;2023-09-19T05:18:18;95730.16;;;16.00;72.32
79077;BME280;68477;42.698;23.342;2023-09-19T05:20:43;95729.34;;;15.99;72.46
79077;BME280;68477;42.698;23.342;2023-09-19T05:23:09;95722.94;;;15.87;72.42
79077;BME280;68477;42.698;23.342;2023-09-19T05:25:37;95735.41;;;15.93;72.93
79077;BME280;68477;42.698;23.342;2023-09-19T05:28:07;95737.06;;;15.94;72.94
79077;BME280;68477;42.698;23.342;2023-09-19T05:30:35;95730.16;;;16.00;72.97
79077;BME280;68477;42.698;23.342;2023-09-19T05:33:04;95731.81;;;16.70;69.11
79077;BME280;68477;42.698;23.342;2023-09-19T05:35:30;95728.38;;;16.76;69.40
79077;BME280;68477;42.698;23.342;2023-09-19T05:37:56;95718.56;;;16.83;68.39
79077;BME280;68477;42.698;23.342;2023-09-19T05:40:23;95711.78;;;16.68;68.30
79077;BME280;68477;42.698;23.342;2023-09-19T05:42:49;95715.72;;;16.98;67.96
79077;BME280;68477;42.698;23.342;2023-09-19T05:45:16;95713.50;;;16.88;68.10
79077;BME280;68477;42.698;23.342;2023-09-19T05:47:48;95702.50;;;17.11;69.03
79077;BME280;68477;42.698;23.342;2023-09-19T05:50:15;95708.03;;;17.30;66.88
79077;BME280;68477;42.698;23.342;2023-09-19T05:52:42;95706.56;;;17.07;67.00
79077;BME280;68477;42.698;23.342;2023-09-19T05:55:08;95706.59;;;17.27;66.84
79077;BME280;68477;42.698;23.342;2023-09-19T05:57:34;95712.97;;;17.33;67.06
79077;BME280;68477;42.698;23.342;2023-09-19T06:00:00;95711.34;;;17.58;66.27
79077;BME280;68477;42.698;23.342;2023-09-19T06:02:26;95713.41;;;17.83;64.75
79077;BME280;68477;42.698;23.342;2023-09-19T06:04:55;95709.50;;;17.45;65.61
79077;BME280;68477;42.698;23.342;2023-09-19T06:07:22;95703.34;;;17.25;67.89
79077;BME280;68477;42.698;23.342;2023-09-19T06:09:51;95700.72;;;17.71;65.65
79077;BME280;68477;42.698;23.342;2023-09-19T06:12:16;95695.97;;;18.07;65.00
79077;BME280;68477;42.698;23.342;2023-09-19T06:14:43;95697.25;;;17.71;65.42
79077;BME280;68477;42.698;23.342;2023-09-19T06:17:08;95699.91;;;17.71;65.36
79077;BME280;68477;42.698;23.342;2023-09-19T06:19:34;95704.97;;;18.19;63.45
79077;BME280;68477;42.698;23.342;2023-09-19T06:21:59;95704.38;;;17.97;65.18
79077;BME280;68477;42.698;23.342;2023-09-19T06:24:25;95703.41;;;17.78;64.76
79077;BME280;68477;42.698;23.342;2023-09-19T06:26:51;95695.78;;;17.49;66.10
79077;BME280;68477;42.698;23.342;2023-09-19T06:29:18;95701.09;;;18.15;63.73
79077;BME280;68477;42.698;23.342;2023-09-19T06:31:43;95687.19;;;17.86;66.13
79077;BME280;68477;42.698;23.342;2023-09-19T06:34:10;95689.81;;;18.26;63.46
79077;BME280;68477;42.698;23.342;2023-09-19T06:36:35;95686.78;;;18.74;62.94
79077;BME280;68477;42.698;23.342;2023-09-19T06:39:01;95696.75;;;18.92;62.25
79077;BME280;68477;42.698;23.342;2023-09-19T06:41:29;95698.69;;;18.71;62.58
79077;BME280;68477;42.698;23.342;2023-09-19T06:43:55;95693.19;;;18.53;62.66
79077;BME280;68477;42.698;23.342;2023-09-19T06:46:21;95691.88;;;18.82;62.04
79077;BME280;68477;42.698;23.342;2023-09-19T06:48:46;95695.22;;;18.57;62.71
79077;BME280;68477;42.698;23.342;2023-09-19T06:51:13;95704.19;;;19.46;60.44
79077;BME280;68477;42.698;23.342;2023-09-19T06:53:41;95700.94;;;18.68;61.62
79077;BME280;68477;42.698;23.342;2023-09-19T06:56:07;95703.22;;;18.57;62.18
79077;BME280;68477;42.698;23.342;2023-09-19T06:58:32;95699.50;;;18.72;61.90
79077;BME280;68477;42.698;23.342;2023-09-19T07:00:58;95707.16;;;19.00;60.97
79077;BME280;68477;42.698;23.342;2023-09-19T07:03:24;95719.34;;;18.76;60.92
79077;BME280;68477;42.698;23.342;2023-09-19T07:05:51;95708.13;;;18.60;62.37
79077;BME280;68477;42.698;23.342;2023-09-19T07:08:18;95707.59;;;18.39;63.49
79077;BME280;68477;42.698;23.342;2023-09-19T07:10:45;95705.66;;;18.66;62.23
79077;BME280;68477;42.698;23.342;2023-09-19T07:13:13;95699.84;;;19.52;59.43
79077;BME280;68477;42.698;23.342;2023-09-19T07:15:43;95702.97;;;19.48;59.39
79077;BME280;68477;42.698;23.342;2023-09-19T07:18:16;95709.00;;;19.37;58.95
79077;BME280;68477;42.698;23.342;2023-09-19T07:20:45;95707.63;;;19.22;59.76
79077;BME280;68477;42.698;23.342;2023-09-19T07:23:21;95699.44;;;18.85;60.47
79077;BME280;68477;42.698;23.342;2023-09-19T07:25:48;95707.56;;;19.03;60.23
79077;BME280;68477;42.698;23.342;2023-09-19T07:28:14;95710.50;;;19.27;59.34
79077;BME280;68477;42.698;23.342;2023-09-19T07:30:40;95704.31;;;18.95;61.03
79077;BME280;68477;42.698;23.342;2023-09-19T07:33:07;95699.13;;;19.06;60.08
79077;BME280;68477;42.698;23.342;2023-09-19T07:35:33;95704.66;;;19.68;58.70
79077;BME280;68477;42.698;23.342;2023-09-19T07:37:59;95711.88;;;19.67;58.52
79077;BME280;68477;42.698;23.342;2023-09-19T07:40:27;95709.84;;;19.31;59.17
79077;BME280;68477;42.698;23.342;2023-09-19T07:42:54;95708.56;;;19.40;58.59
79077;BME280;68477;42.698;23.342;2023-09-19T07:45:20;95704.28;;;19.33;58.86
79077;BME280;68477;42.698;23.342;2023-09-19T07:47:50;95706.03;;;19.77;58.64
79077;BME280;68477;42.698;23.342;2023-09-19T07:50:17;95704.63;;;19.43;58.91
79077;BME280;68477;42.698;23.342;2023-09-19T07:52:44;95708.13;;;19.43;58.61
79077;BME280;68477;42.698;23.342;2023-09-19T07:55:10;95706.59;;;19.54;58.51
79077;BME280;68477;42.698;23.342;2023-09-19T07:57:37;95711.81;;;19.99;58.84
79077;BME280;68477;42.698;23.342;2023-09-19T08:00:03;95711.13;;;19.54;58.45
79077;BME280;68477;42.698;23.342;2023-09-19T08:02:34;95716.91;;;19.51;58.46
79077;BME280;68477;42.698;23.342;2023-09-19T08:05:00;95714.34;;;20.12;58.27
79077;BME280;68477;42.698;23.342;2023-09-19T08:07:26;95702.75;;;20.43;56.36
79077;BME280;68477;42.698;23.342;2023-09-19T08:09:51;95697.25;;;20.75;54.79
79077;BME280;68477;42.698;23.342;2023-09-19T08:12:17;95696.94;;;20.28;55.83
79077;BME280;68477;42.698;23.342;2023-09-19T08:14:46;95690.72;;;20.71;54.68
79077;BME280;68477;42.698;23.342;2023-09-19T08:17:12;95683.06;;;20.74;54.23
79077;BME280;68477;42.698;23.342;2023-09-19T08:19:38;95689.69;;;21.02;54.16
79077;BME280;68477;42.698;23.342;2023-09-19T08:22:06;95680.72;;;20.48;55.83
79077;BME280;68477;42.698;23.342;2023-09-19T08:24:31;95674.91;;;20.69;54.55
79077;BME280;68477;42.698;23.342;2023-09-19T08:26:58;95672.97;;;20.76;54.18
79077;BME280;68477;42.698;23.342;2023-09-19T08:29:24;95676.69;;;20.75;53.58
79077;BME280;68477;42.698;23.342;2023-09-19T08:31:54;95678.53;;;20.75;53.84
79077;BME280;68477;42.698;23.342;2023-09-19T08:34:21;95678.78;;;21.33;52.98
79077;BME280;68477;42.698;23.342;2023-09-19T08:36:47;95681.84;;;21.48;52.92
79077;BME280;68477;42.698;23.342;2023-09-19T08:39:13;95693.75;;;21.53;51.70
79077;BME280;68477;42.698;23.342;2023-09-19T08:41:39;95680.41;;;21.88;51.05
79077;BME280;68477;42.698;23.342;2023-09-19T08:44:05;95680.81;;;21.61;52.01
79077;BME280;68477;42.698;23.342;2023-09-19T08:46:34;95672.34;;;21.53;52.64
79077;BME280;68477;42.698;23.342;2023-09-19T08:49:05;95678.25;;;21.25;52.87
79077;BME280;68477;42.698;23.342;2023-09-19T08:51:41;95681.44;;;21.63;51.38
79077;BME280;68477;42.698;23.342;2023-09-19T08:54:15;95668.50;;;21.72;51.78
79077;BME280;68477;42.698;23.342;2023-09-19T08:56:44;95666.28;;;21.80;50.89
79077;BME280;68477;42.698;23.342;2023-09-19T08:59:11;95673.41;;;21.63;51.18
79077;BME280;68477;42.698;23.342;2023-09-19T09:01:38;95667.03;;;21.34;52.46
79077;BME280;68477;42.698;23.342;2023-09-19T09:04:08;95665.97;;;21.05;52.94
79077;BME280;68477;42.698;23.342;2023-09-19T09:06:38;95660.78;;;21.10;53.07
79077;BME280;68477;42.698;23.342;2023-09-19T09:09:04;95662.16;;;21.31;52.70
79077;BME280;68477;42.698;23.342;2023-09-19T09:11:33;95666.72;;;21.12;52.87
79077;BME280;68477;42.698;23.342;2023-09-19T09:13:58;95664.44;;;21.28;52.01
79077;BME280;68477;42.698;23.342;2023-09-19T09:16:24;95653.38;;;22.01;51.04
79077;BME280;68477;42.698;23.342;2023-09-19T09:18:51;95662.31;;;22.42;49.34
79077;BME280;68477;42.698;23.342;2023-09-19T09:21:25;95651.53;;;22.13;49.51
79077;BME280;68477;42.698;23.342;2023-09-19T09:23:50;95650.38;;;22.21;50.05
79077;BME280;68477;42.698;23.342;2023-09-19T09:26:51;95650.78;;;22.41;49.31
79077;BME280;68477;42.698;23.342;2023-09-19T09:29:45;95646.84;;;22.32;49.18
79077;BME280;68477;42.698;23.342;2023-09-19T09:32:17;95644.63;;;21.82;50.03
79077;BME280;68477;42.698;23.342;2023-09-19T09:34:48;95642.91;;;22.63;48.68
79077;BME280;68477;42.698;23.342;2023-09-19T09:37:15;95648.19;;;22.98;47.04
79077;BME280;68477;42.698;23.342;2023-09-19T09:42:43;95631.09;;;22.76;48.00
79077;BME280;68477;42.698;23.342;2023-09-19T09:47:42;95618.66;;;23.27;47.46
79077;BME280;68477;42.698;23.342;2023-09-19T09:50:26;95624.38;;;23.80;46.29
79077;BME280;68477;42.698;23.342;2023-09-19T09:52:57;95616.69;;;23.39;47.06
79077;BME280;68477;42.698;23.342;2023-09-19T09:58:24;95606.78;;;23.22;47.22
79077;BME280;68477;42.698;23.342;2023-09-19T10:00:55;95615.03;;;23.04;47.09
79077;BME280;68477;42.698;23.342;2023-09-19T10:03:39;95615.53;;;22.61;48.02
79077;BME280;68477;42.698;23.342;2023-09-19T10:06:10;95610.16;;;22.61;48.49
79077;BME280;68477;42.698;23.342;2023-09-19T10:09:07;95613.53;;;22.97;47.92
79077;BME280;68477;42.698;23.342;2023-09-19T10:11:41;95617.97;;;23.03;47.37
79077;BME280;68477;42.698;23.342;2023-09-19T10:14:10;95616.16;;;22.80;47.40
79077;BME280;68477;42.698;23.342;2023-09-19T10:16:40;95613.50;;;22.40;49.34
79077;BME280;68477;42.698;23.342;2023-09-19T10:19:07;95605.16;;;22.53;49.50
79077;BME280;68477;42.698;23.342;2023-09-19T10:21:36;95603.56;;;23.09;47.46
79077;BME280;68477;42.698;23.342;2023-09-19T10:24:03;95596.31;;;23.09;47.55
79077;BME280;68477;42.698;23.342;2023-09-19T10:26:34;95602.94;;;23.18;47.60
79077;BME280;68477;42.698;23.342;2023-09-19T10:29:01;95605.28;;;23.15;46.87
79077;BME280;68477;42.698;23.342;2023-09-19T10:31:29;95598.94;;;23.04;47.01
79077;BME280;68477;42.698;23.342;2023-09-19T10:34:03;95591.97;;;23.37;47.53
79077;BME280;68477;42.698;23.342;2023-09-19T10:36:33;95598.63;;;23.17;46.97
79077;BME280;68477;42.698;23.342;2023-09-19T10:39:02;95590.88;;;23.21;46.37
79077;BME280;68477;42.698;23.342;2023-09-19T10:41:32;95589.44;;;23.13;46.49
79077;BME280;68477;42.698;23.342;2023-09-19T10:44:02;95587.88;;;23.17;46.75
79077;BME280;68477;42.698;23.342;2023-09-19T10:46:29;95588.47;;;23.36;46.33
79077;BME280;68477;42.698;23.342;2023-09-19T10:48:59;95590.38;;;23.07;47.89
79077;BME280;68477;42.698;23.342;2023-09-19T10:51:30;95585.75;;;22.74;48.20
79077;BME280;68477;42.698;23.342;2023-09-19T10:56:36;95576.81;;;22.69;48.15
79077;BME280;68477;42.698;23.342;2023-09-19T10:59:09;95572.03;;;22.99;47.68
79077;BME280;68477;42.698;23.342;2023-09-19T11:01:52;95567.66;;;23.27;47.86
79077;BME280;68477;42.698;23.342;2023-09-19T11:09:47;95573.22;;;23.08;47.41
79077;BME280;68477;42.698;23.342;2023-09-19T11:14:59;95562.75;;;23.57;46.46
79077;BME280;68477;42.698;23.342;2023-09-19T11:17:35;95568.22;;;23.45;47.02
79077;BME280;68477;42.698;23.342;2023-09-19T11:30:44;95545.31;;;23.76;45.95
79077;BME280;68477;42.698;23.342;2023-09-19T11:36:04;95540.50;;;24.39;45.08
79077;BME280;68477;42.698;23.342;2023-09-19T11:41:36;95528.41;;;25.17;43.60
79077;BME280;68477;42.698;23.342;2023-09-19T11:46:33;95513.00;;;25.13;42.82
79077;BME280;68477;42.698;23.342;2023-09-19T11:49:09;95507.63;;;24.86;43.39
79077;BME280;68477;42.698;23.342;2023-09-19T11:51:55;95510.06;;;25.51;41.79
79077;BME280;68477;42.698;23.342;2023-09-19T11:54:21;95509.56;;;25.17;43.33
79077;BME280;68477;42.698;23.342;2023-09-19T11:56:58;95512.72;;;24.82;43.30
79077;BME280;68477;42.698;23.342;2023-09-19T11:59:29;95506.75;;;24.80;43.34
79077;BME280;68477;42.698;23.342;2023-09-19T12:02:00;95509.19;;;25.09;43.12
79077;BME280;68477;42.698;23.342;2023-09-19T12:04:42;95512.28;;;27.15;38.67
79077;BME280;68477;42.698;23.342;2023-09-19T12:07:16;95501.06;;;28.13;37.16
79077;BME280;68477;42.698;23.342;2023-09-19T12:09:51;95493.63;;;27.70;38.46
79077;BME280;68477;42.698;23.342;2023-09-19T12:12:27;95494.19;;;28.91;35.73
79077;BME280;68477;42.698;23.342;2023-09-19T12:14:54;95485.75;;;28.97;35.31
79077;BME280;68477;42.698;23.342;2023-09-19T12:17:20;95477.31;;;29.33;34.20
79077;BME280;68477;42.698;23.342;2023-09-19T12:19:56;95473.97;;;29.46;33.68
79077;BME280;68477;42.698;23.342;2023-09-19T12:22:22;95483.88;;;29.27;33.94
79077;BME280;68477;42.698;23.342;2023-09-19T12:24:47;95473.75;;;29.67;33.55
79077;BME280;68477;42.698;23.342;2023-09-19T12:27:13;95470.44;;;29.99;32.84
79077;BME280;68477;42.698;23.342;2023-09-19T12:29:49;95475.00;;;30.46;32.07
79077;BME280;68477;42.698;23.342;2023-09-19T12:32:16;95467.34;;;29.28;33.74
79077;BME280;68477;42.698;23.342;2023-09-19T12:34:42;95470.69;;;30.02;32.31
79077;BME280;68477;42.698;23.342;2023-09-19T12:37:15;95468.72;;;30.51;32.13
79077;BME280;68477;42.698;23.342;2023-09-19T12:39:46;95467.94;;;29.78;32.34
79077;BME280;68477;42.698;23.342;2023-09-19T12:42:15;95454.34;;;29.60;32.17
79077;BME280;68477;42.698;23.342;2023-09-19T12:44:46;95455.16;;;30.08;32.25
79077;BME280;68477;42.698;23.342;2023-09-19T12:47:17;95461.00;;;30.58;31.22
79077;BME280;68477;42.698;23.342;2023-09-19T12:50:16;95462.28;;;30.23;31.85
79077;BME280;68477;42.698;23.342;2023-09-19T12:52:52;95456.63;;;31.32;30.52
79077;BME280;68477;42.698;23.342;2023-09-19T13:00:40;95450.66;;;30.79;30.60
79077;BME280;68477;42.698;23.342;2023-09-19T13:08:27;95431.34;;;30.42;31.60
79077;BME280;68477;42.698;23.342;2023-09-19T13:11:17;95440.50;;;31.22;30.07
79077;BME280;68477;42.698;23.342;2023-09-19T13:14:23;95434.66;;;30.96;30.42
79077;BME280;68477;42.698;23.342;2023-09-19T13:17:02;95425.47;;;30.92;31.33
79077;BME280;68477;42.698;23.342;2023-09-19T13:19:50;95425.91;;;30.99;30.81
79077;BME280;68477;42.698;23.342;2023-09-19T13:22:44;95427.41;;;31.24;30.69
79077;BME280;68477;42.698;23.342;2023-09-19T13:25:30;95427.25;;;30.45;31.16
79077;BME280;68477;42.698;23.342;2023-09-19T13:27:57;95421.38;;;30.38;31.43
79077;BME280;68477;42.698;23.342;2023-09-19T13:30:27;95409.22;;;31.06;30.60
79077;BME280;68477;42.698;23.342;2023-09-19T13:33:11;95410.66;;;31.63;29.54
79077;BME280;68477;42.698;23.342;2023-09-19T13:35:39;95405.22;;;31.17;30.10
79077;BME280;68477;42.698;23.342;2023-09-19T13:38:06;95411.81;;;30.97;30.48
79077;BME280;68477;42.698;23.342;2023-09-19T13:40:34;95399.16;;;31.06;30.25
79077;BME280;68477;42.698;23.342;2023-09-19T13:43:03;95406.25;;;31.21;29.75
79077;BME280;68477;42.698;23.342;2023-09-19T13:45:28;95409.56;;;30.29;31.96
79077;BME280;68477;42.698;23.342;2023-09-19T13:47:56;95406.72;;;30.39;32.08
79077;BME280;68477;42.698;23.342;2023-09-19T13:50:21;95408.53;;;30.62;31.34
79077;BME280;68477;42.698;23.342;2023-09-19T13:52:50;95410.72;;;30.23;31.76
79077;BME280;68477;42.698;23.342;2023-09-19T13:55:17;95402.47;;;29.90;32.33
79077;BME280;68477;42.698;23.342;2023-09-19T13:57:48;95394.38;;;28.74;34.57